sensor_id;sensor_type;location;lat;lon;timestamp;pressure;altitude;pressure_sealevel;temperature;humidity
20009;BME280;10165;42.662;23.260;2023-08-31T00:00:44;93639.47;;;23.92;42.56
20009;BME280;10165;42.662;23.260;2023-08-31T00:03:12;93638.25;;;24.06;42.15
20009;BME280;10165;42.662;23.260;2023-08-31T00:05:41;93633.69;;;24.03;42.42
20009;BME280;10165;42.662;23.260;2023-08-31T00:08:08;93643.75;;;23.93;42.35
20009;BME280;10165;42.662;23.260;2023-08-31T00:10:35;93636.94;;;24.10;42.08
20009;BME280;10165;42.662;23.260;2023-08-31T00:13:03;93632.59;;;24.00;41.93
20009;BME280;10165;42.662;23.260;2023-08-31T00:15:30;93635.91;;;23.83;42.49
20009;BME280;10165;42.662;23.260;2023-08-31T00:17:59;93632.78;;;23.71;42.76
20009;BME280;10165;42.662;23.260;2023-08-31T00:20:26;93639.66;;;23.63;42.88
20009;BME280;10165;42.662;23.260;2023-08-31T00:22:53;93632.81;;;23.93;42.24
20009;BME280;10165;42.662;23.260;2023-08-31T00:25:19;93626.44;;;24.21;41.52
20009;BME280;10165;42.662;23.260;2023-08-31T00:27:46;93637.81;;;24.42;41.39
20009;BME280;10165;42.662;23.260;2023-08-31T00:30:15;93643.78;;;24.27;41.53
20009;BME280;10165;42.662;23.260;2023-08-31T00:32:41;93646.09;;;24.16;42.43
20009;BME280;10165;42.662;23.260;2023-08-31T00:35:14;93648.84;;;24.16;42.31
20009;BME280;10165;42.662;23.260;2023-08-31T00:37:40;93643.72;;;24.06;42.16
20009;BME280;10165;42.662;23.260;2023-08-31T00:40:07;93651.38;;;23.98;42.43
20009;BME280;10165;42.662;23.260;2023-08-31T00:42:35;93654.16;;;24.07;41.90
20009;BME280;10165;42.662;23.260;2023-08-31T00:45:04;93653.31;;;24.10;41.87
20009;BME280;10165;42.662;23.260;2023-08-31T00:47:32;93653.63;;;24.12;42.07
20009;BME280;10165;42.662;23.260;2023-08-31T00:49:59;93649.03;;;24.22;41.79
20009;BME280;10165;42.662;23.260;2023-08-31T00:52:27;93653.50;;;24.28;41.74
20009;BME280;10165;42.662;23.260;2023-08-31T00:54:54;93661.44;;;24.36;41.82
20009;BME280;10165;42.662;23.260;2023-08-31T00:57:20;93651.91;;;24.40;42.16
20009;BME280;10165;42.662;23.260;2023-08-31T00:59:47;93657.25;;;24.44;41.79
20009;BME280;10165;42.662;23.260;2023-08-31T01:02:22;93656.66;;;24.27;41.88
20009;BME280;10165;42.662;23.260;2023-08-31T01:13:22;93658.25;;;24.03;41.92
20009;BME280;10165;42.662;23.260;2023-08-31T01:15:56;93661.16;;;23.49;43.29
20009;BME280;10165;42.662;23.260;2023-08-31T01:18:27;93671.25;;;23.86;42.49
20009;BME280;10165;42.662;23.260;2023-08-31T01:21:02;93674.03;;;24.08;42.26
20009;BME280;10165;42.662;23.260;2023-08-31T01:23:50;93667.66;;;23.89;42.67
20009;BME280;10165;42.662;23.260;2023-08-31T01:26:17;93669.81;;;24.07;42.29
20009;BME280;10165;42.662;23.260;2023-08-31T01:28:45;93660.84;;;24.06;42.37
20009;BME280;10165;42.662;23.260;2023-08-31T01:31:12;93661.16;;;24.08;42.38
20009;BME280;10165;42.662;23.260;2023-08-31T01:36:49;93658.69;;;24.14;42.49
20009;BME280;10165;42.662;23.260;2023-08-31T01:39:32;93664.00;;;24.17;42.30
20009;BME280;10165;42.662;23.260;2023-08-31T01:42:02;93651.66;;;24.25;42.06
20009;BME280;10165;42.662;23.260;2023-08-31T01:44:35;93653.16;;;24.26;42.45
20009;BME280;10165;42.662;23.260;2023-08-31T01:47:04;93651.00;;;24.09;42.47
20009;BME280;10165;42.662;23.260;2023-08-31T01:49:40;93659.63;;;24.07;42.19
20009;BME280;10165;42.662;23.260;2023-08-31T01:52:07;93662.81;;;24.06;42.53
20009;BME280;10165;42.662;23.260;2023-08-31T01:54:34;93657.50;;;23.77;43.24
20009;BME280;10165;42.662;23.260;2023-08-31T01:57:00;93661.03;;;23.65;43.57
20009;BME280;10165;42.662;23.260;2023-08-31T01:59:29;93666.38;;;23.68;43.74
20009;BME280;10165;42.662;23.260;2023-08-31T02:01:56;93671.16;;;23.77;43.16
20009;BME280;10165;42.662;23.260;2023-08-31T02:04:22;93667.00;;;23.34;44.03
20009;BME280;10165;42.662;23.260;2023-08-31T02:06:49;93675.09;;;23.51;43.37
20009;BME280;10165;42.662;23.260;2023-08-31T02:09:16;93680.31;;;23.32;43.77
20009;BME280;10165;42.662;23.260;2023-08-31T02:11:42;93692.09;;;23.29;43.94
20009;BME280;10165;42.662;23.260;2023-08-31T02:14:09;93683.38;;;23.22;44.00
20009;BME280;10165;42.662;23.260;2023-08-31T02:16:36;93692.31;;;23.35;43.77
20009;BME280;10165;42.662;23.260;2023-08-31T02:19:02;93693.22;;;23.45;43.62
20009;BME280;10165;42.662;23.260;2023-08-31T02:21:29;93693.25;;;23.16;44.30
20009;BME280;10165;42.662;23.260;2023-08-31T02:23:56;93688.25;;;23.27;44.08
20009;BME280;10165;42.662;23.260;2023-08-31T02:26:23;93681.72;;;23.24;44.13
20009;BME280;10165;42.662;23.260;2023-08-31T02:28:49;93680.63;;;23.34;43.91
20009;BME280;10165;42.662;23.260;2023-08-31T02:31:17;93676.53;;;23.43;43.70
20009;BME280;10165;42.662;23.260;2023-08-31T02:33:46;93671.56;;;23.12;44.52
20009;BME280;10165;42.662;23.260;2023-08-31T02:36:13;93670.63;;;23.19;44.54
20009;BME280;10165;42.662;23.260;2023-08-31T02:38:40;93666.16;;;23.38;44.16
20009;BME280;10165;42.662;23.260;2023-08-31T02:41:06;93672.94;;;23.46;43.83
20009;BME280;10165;42.662;23.260;2023-08-31T02:43:33;93684.56;;;23.21;44.49
20009;BME280;10165;42.662;23.260;2023-08-31T02:46:01;93683.25;;;22.71;45.61
20009;BME280;10165;42.662;23.260;2023-08-31T02:48:28;93685.13;;;22.46;46.65
20009;BME280;10165;42.662;23.260;2023-08-31T02:50:57;93685.47;;;22.89;45.74
20009;BME280;10165;42.662;23.260;2023-08-31T02:53:27;93682.44;;;22.87;45.51
20009;BME280;10165;42.662;23.260;2023-08-31T02:55:54;93694.72;;;22.79;45.67
20009;BME280;10165;42.662;23.260;2023-08-31T02:58:21;93707.34;;;22.73;45.90
20009;BME280;10165;42.662;23.260;2023-08-31T03:00:47;93704.84;;;22.78;45.63
20009;BME280;10165;42.662;23.260;2023-08-31T03:03:17;93708.31;;;22.50;46.53
20009;BME280;10165;42.662;23.260;2023-08-31T03:05:44;93712.38;;;22.58;46.37
20009;BME280;10165;42.662;23.260;2023-08-31T03:08:11;93715.31;;;22.80;45.94
20009;BME280;10165;42.662;23.260;2023-08-31T03:10:38;93717.28;;;22.63;46.22
20009;BME280;10165;42.662;23.260;2023-08-31T03:13:05;93708.41;;;22.47;46.69
20009;BME280;10165;42.662;23.260;2023-08-31T03:15:33;93711.94;;;22.60;46.39
20009;BME280;10165;42.662;23.260;2023-08-31T03:18:00;93710.50;;;22.55;46.54
20009;BME280;10165;42.662;23.260;2023-08-31T03:20:28;93717.78;;;22.46;46.95
20009;BME280;10165;42.662;23.260;2023-08-31T03:22:55;93710.63;;;22.35;47.11
20009;BME280;10165;42.662;23.260;2023-08-31T03:25:22;93716.63;;;22.59;46.50
20009;BME280;10165;42.662;23.260;2023-08-31T03:27:48;93714.66;;;22.76;46.09
20009;BME280;10165;42.662;23.260;2023-08-31T03:30:15;93707.16;;;22.64;46.45
20009;BME280;10165;42.662;23.260;2023-08-31T03:32:42;93709.22;;;22.60;46.48
20009;BME280;10165;42.662;23.260;2023-08-31T03:35:09;93708.72;;;22.65;46.33
20009;BME280;10165;42.662;23.260;2023-08-31T03:37:36;93706.88;;;22.46;46.45
20009;BME280;10165;42.662;23.260;2023-08-31T03:40:03;93712.28;;;22.33;46.85
20009;BME280;10165;42.662;23.260;2023-08-31T03:42:34;93713.53;;;22.45;46.34
20009;BME280;10165;42.662;23.260;2023-08-31T03:45:01;93714.84;;;22.69;45.80
20009;BME280;10165;42.662;23.260;2023-08-31T03:47:29;93720.31;;;22.69;45.68
20009;BME280;10165;42.662;23.260;2023-08-31T03:49:56;93721.97;;;22.79;45.80
20009;BME280;10165;42.662;23.260;2023-08-31T03:52:23;93722.56;;;22.70;45.52
20009;BME280;10165;42.662;23.260;2023-08-31T03:54:51;93729.59;;;22.84;45.41
20009;BME280;10165;42.662;23.260;2023-08-31T03:57:18;93727.19;;;22.86;45.44
20009;BME280;10165;42.662;23.260;2023-08-31T03:59:45;93729.75;;;23.06;44.88
20009;BME280;10165;42.662;23.260;2023-08-31T04:02:12;93730.44;;;23.10;44.68
20009;BME280;10165;42.662;23.260;2023-08-31T04:04:39;93745.19;;;22.96;44.62
20009;BME280;10165;42.662;23.260;2023-08-31T04:07:06;93753.97;;;23.16;44.45
20009;BME280;10165;42.662;23.260;2023-08-31T04:09:33;93758.13;;;23.21;44.57
20009;BME280;10165;42.662;23.260;2023-08-31T04:12:00;93769.72;;;22.96;45.08
20009;BME280;10165;42.662;23.260;2023-08-31T04:14:27;93771.63;;;23.12;44.93
20009;BME280;10165;42.662;23.260;2023-08-31T04:16:57;93765.47;;;22.95;45.35
20009;BME280;10165;42.662;23.260;2023-08-31T04:19:23;93765.47;;;22.95;45.60
20009;BME280;10165;42.662;23.260;2023-08-31T04:21:50;93775.88;;;23.13;44.96
20009;BME280;10165;42.662;23.260;2023-08-31T04:24:17;93774.78;;;23.10;45.13
20009;BME280;10165;42.662;23.260;2023-08-31T04:26:43;93787.03;;;23.18;44.79
20009;BME280;10165;42.662;23.260;2023-08-31T04:29:11;93782.75;;;23.17;44.83
20009;BME280;10165;42.662;23.260;2023-08-31T04:31:38;93793.00;;;23.13;45.08
20009;BME280;10165;42.662;23.260;2023-08-31T04:34:05;93783.22;;;23.28;44.99
20009;BME280;10165;42.662;23.260;2023-08-31T04:36:33;93792.84;;;23.33;44.94
20009;BME280;10165;42.662;23.260;2023-08-31T04:39:00;93790.59;;;23.15;45.39
20009;BME280;10165;42.662;23.260;2023-08-31T04:41:27;93793.00;;;23.13;45.88
20009;BME280;10165;42.662;23.260;2023-08-31T04:43:54;93797.13;;;22.60;46.70
20009;BME280;10165;42.662;23.260;2023-08-31T04:46:20;93800.69;;;22.57;47.22
20009;BME280;10165;42.662;23.260;2023-08-31T04:48:47;93799.16;;;22.72;47.25
20009;BME280;10165;42.662;23.260;2023-08-31T04:51:34;93802.66;;;23.02;46.87
20009;BME280;10165;42.662;23.260;2023-08-31T04:54:01;93802.09;;;22.94;46.37
20009;BME280;10165;42.662;23.260;2023-08-31T04:56:31;93793.28;;;23.03;46.45
20009;BME280;10165;42.662;23.260;2023-08-31T04:58:59;93804.53;;;22.76;47.20
20009;BME280;10165;42.662;23.260;2023-08-31T05:01:26;93800.75;;;22.86;47.17
20009;BME280;10165;42.662;23.260;2023-08-31T05:03:53;93812.69;;;22.76;47.51
20009;BME280;10165;42.662;23.260;2023-08-31T05:06:20;93806.91;;;23.03;47.26
20009;BME280;10165;42.662;23.260;2023-08-31T05:08:47;93805.69;;;23.32;46.34
20009;BME280;10165;42.662;23.260;2023-08-31T05:11:15;93810.88;;;23.43;45.85
20009;BME280;10165;42.662;23.260;2023-08-31T05:13:41;93808.03;;;23.47;46.08
20009;BME280;10165;42.662;23.260;2023-08-31T05:16:09;93813.00;;;23.64;45.88
20009;BME280;10165;42.662;23.260;2023-08-31T05:18:36;93811.03;;;23.65;45.78
20009;BME280;10165;42.662;23.260;2023-08-31T05:21:03;93811.91;;;23.74;45.72
20009;BME280;10165;42.662;23.260;2023-08-31T05:23:30;93814.28;;;23.60;46.20
20009;BME280;10165;42.662;23.260;2023-08-31T05:25:57;93814.72;;;23.58;46.15
20009;BME280;10165;42.662;23.260;2023-08-31T05:28:24;93817.03;;;23.72;45.67
20009;BME280;10165;42.662;23.260;2023-08-31T05:30:52;93806.31;;;23.65;46.16
20009;BME280;10165;42.662;23.260;2023-08-31T05:33:19;93805.69;;;23.74;46.31
20009;BME280;10165;42.662;23.260;2023-08-31T05:35:47;93805.13;;;24.04;45.73
20009;BME280;10165;42.662;23.260;2023-08-31T05:38:13;93809.19;;;24.00;45.11
20009;BME280;10165;42.662;23.260;2023-08-31T05:40:40;93804.16;;;23.73;44.95
20009;BME280;10165;42.662;23.260;2023-08-31T05:43:12;93802.63;;;23.72;44.81
20009;BME280;10165;42.662;23.260;2023-08-31T05:45:40;93798.72;;;23.98;44.20
20009;BME280;10165;42.662;23.260;2023-08-31T05:48:07;93801.53;;;24.07;41.84
20009;BME280;10165;42.662;23.260;2023-08-31T05:50:34;93803.84;;;24.09;41.70
20009;BME280;10165;42.662;23.260;2023-08-31T05:53:03;93799.66;;;24.42;41.99
20009;BME280;10165;42.662;23.260;2023-08-31T05:55:30;93799.47;;;24.37;42.31
20009;BME280;10165;42.662;23.260;2023-08-31T05:57:59;93799.81;;;24.26;41.54
20009;BME280;10165;42.662;23.260;2023-08-31T06:00:27;93794.84;;;24.59;41.35
20009;BME280;10165;42.662;23.260;2023-08-31T06:02:54;93802.25;;;24.58;40.99
20009;BME280;10165;42.662;23.260;2023-08-31T06:05:21;93801.53;;;24.45;41.48
20009;BME280;10165;42.662;23.260;2023-08-31T06:07:48;93803.78;;;24.59;41.06
20009;BME280;10165;42.662;23.260;2023-08-31T06:10:15;93811.63;;;24.70;40.98
20009;BME280;10165;42.662;23.260;2023-08-31T06:12:42;93813.72;;;24.66;40.06
20009;BME280;10165;42.662;23.260;2023-08-31T06:15:09;93813.72;;;24.53;40.36
20009;BME280;10165;42.662;23.260;2023-08-31T06:17:35;93814.44;;;24.45;40.54
20009;BME280;10165;42.662;23.260;2023-08-31T06:20:02;93822.63;;;24.19;41.25
20009;BME280;10165;42.662;23.260;2023-08-31T06:22:32;93826.19;;;24.54;40.57
20009;BME280;10165;42.662;23.260;2023-08-31T06:24:59;93828.09;;;24.32;41.09
20009;BME280;10165;42.662;23.260;2023-08-31T06:27:26;93825.69;;;24.21;41.07
20009;BME280;10165;42.662;23.260;2023-08-31T06:29:52;93832.47;;;24.30;40.88
20009;BME280;10165;42.662;23.260;2023-08-31T06:32:19;93833.63;;;24.54;40.91
20009;BME280;10165;42.662;23.260;2023-08-31T06:34:46;93839.31;;;24.47;40.85
20009;BME280;10165;42.662;23.260;2023-08-31T06:37:13;93844.03;;;24.34;41.01
20009;BME280;10165;42.662;23.260;2023-08-31T06:39:40;93840.13;;;24.69;41.05
20009;BME280;10165;42.662;23.260;2023-08-31T06:42:07;93843.69;;;25.04;40.20
20009;BME280;10165;42.662;23.260;2023-08-31T06:44:34;93851.41;;;25.18;39.61
20009;BME280;10165;42.662;23.260;2023-08-31T06:47:01;93848.16;;;24.51;40.69
20009;BME280;10165;42.662;23.260;2023-08-31T06:49:28;93850.69;;;25.27;39.63
20009;BME280;10165;42.662;23.260;2023-08-31T06:51:56;93844.28;;;25.42;39.80
20009;BME280;10165;42.662;23.260;2023-08-31T06:54:23;93851.34;;;24.96;40.72
20009;BME280;10165;42.662;23.260;2023-08-31T06:56:50;93844.84;;;25.15;40.52
20009;BME280;10165;42.662;23.260;2023-08-31T06:59:16;93845.59;;;25.38;39.75
20009;BME280;10165;42.662;23.260;2023-08-31T07:01:43;93848.59;;;25.31;40.16
20009;BME280;10165;42.662;23.260;2023-08-31T07:04:10;93853.44;;;24.92;41.14
20009;BME280;10165;42.662;23.260;2023-08-31T07:06:36;93856.81;;;24.96;40.98
20009;BME280;10165;42.662;23.260;2023-08-31T07:09:03;93854.13;;;25.52;40.26
20009;BME280;10165;42.662;23.260;2023-08-31T07:11:32;93852.34;;;25.46;39.73
20009;BME280;10165;42.662;23.260;2023-08-31T07:13:59;93847.22;;;25.48;38.89
20009;BME280;10165;42.662;23.260;2023-08-31T07:16:26;93845.56;;;25.50;37.70
20009;BME280;10165;42.662;23.260;2023-08-31T07:18:53;93851.06;;;26.34;36.07
20009;BME280;10165;42.662;23.260;2023-08-31T07:21:20;93858.63;;;25.99;36.47
20009;BME280;10165;42.662;23.260;2023-08-31T07:23:47;93858.91;;;25.92;36.20
20009;BME280;10165;42.662;23.260;2023-08-31T07:26:14;93862.06;;;26.43;35.75
20009;BME280;10165;42.662;23.260;2023-08-31T07:28:42;93869.66;;;26.39;36.15
20009;BME280;10165;42.662;23.260;2023-08-31T07:31:09;93864.34;;;26.13;36.10
20009;BME280;10165;42.662;23.260;2023-08-31T07:33:36;93864.84;;;26.61;35.52
20009;BME280;10165;42.662;23.260;2023-08-31T07:36:04;93864.22;;;26.48;35.52
20009;BME280;10165;42.662;23.260;2023-08-31T07:38:33;93868.69;;;26.63;35.53
20009;BME280;10165;42.662;23.260;2023-08-31T07:41:00;93873.31;;;26.45;35.57
20009;BME280;10165;42.662;23.260;2023-08-31T07:43:27;93865.72;;;26.49;35.40
20009;BME280;10165;42.662;23.260;2023-08-31T07:45:54;93868.50;;;26.58;35.31
20009;BME280;10165;42.662;23.260;2023-08-31T07:48:21;93872.47;;;26.66;35.08
20009;BME280;10165;42.662;23.260;2023-08-31T07:50:48;93864.84;;;26.52;35.59
20009;BME280;10165;42.662;23.260;2023-08-31T07:53:18;93876.44;;;26.65;35.75
20009;BME280;10165;42.662;23.260;2023-08-31T07:55:52;93872.88;;;26.95;34.84
20009;BME280;10165;42.662;23.260;2023-08-31T07:58:21;93877.88;;;26.88;35.34
20009;BME280;10165;42.662;23.260;2023-08-31T08:00:48;93872.91;;;27.23;34.61
20009;BME280;10165;42.662;23.260;2023-08-31T08:03:15;93879.28;;;27.10;34.33
20009;BME280;10165;42.662;23.260;2023-08-31T08:05:42;93887.50;;;27.01;34.90
20009;BME280;10165;42.662;23.260;2023-08-31T08:08:09;93870.63;;;27.39;34.31
20009;BME280;10165;42.662;23.260;2023-08-31T08:10:36;93874.56;;;27.02;33.98
20009;BME280;10165;42.662;23.260;2023-08-31T08:13:03;93875.31;;;26.93;33.95
20009;BME280;10165;42.662;23.260;2023-08-31T08:15:30;93876.13;;;26.72;34.08
20009;BME280;10165;42.662;23.260;2023-08-31T08:17:57;93869.38;;;27.04;33.48
20009;BME280;10165;42.662;23.260;2023-08-31T08:20:24;93873.63;;;26.87;33.33
20009;BME280;10165;42.662;23.260;2023-08-31T08:22:51;93877.03;;;26.69;33.04
20009;BME280;10165;42.662;23.260;2023-08-31T08:25:21;93879.78;;;26.69;33.68
20009;BME280;10165;42.662;23.260;2023-08-31T08:27:48;93879.97;;;26.75;33.44
20009;BME280;10165;42.662;23.260;2023-08-31T08:30:15;93881.75;;;26.59;33.17
20009;BME280;10165;42.662;23.260;2023-08-31T08:32:42;93872.63;;;26.72;33.28
20009;BME280;10165;42.662;23.260;2023-08-31T08:35:09;93883.47;;;26.75;32.54
20009;BME280;10165;42.662;23.260;2023-08-31T08:37:36;93880.47;;;26.91;33.09
20009;BME280;10165;42.662;23.260;2023-08-31T08:40:03;93881.22;;;26.83;32.98
20009;BME280;10165;42.662;23.260;2023-08-31T08:42:41;93887.56;;;26.80;32.88
20009;BME280;10165;42.662;23.260;2023-08-31T08:45:15;93887.28;;;26.38;32.37
20009;BME280;10165;42.662;23.260;2023-08-31T08:47:46;93873.63;;;26.96;31.80
20009;BME280;10165;42.662;23.260;2023-08-31T08:50:13;93873.88;;;26.71;31.83
20009;BME280;10165;42.662;23.260;2023-08-31T08:52:41;93874.34;;;26.38;31.88
20009;BME280;10165;42.662;23.260;2023-08-31T08:55:08;93875.31;;;26.44;31.79
20009;BME280;10165;42.662;23.260;2023-08-31T08:57:36;93885.66;;;26.89;31.43
20009;BME280;10165;42.662;23.260;2023-08-31T09:00:03;93874.72;;;27.26;30.53
20009;BME280;10165;42.662;23.260;2023-08-31T09:02:30;93875.97;;;27.61;30.04
20009;BME280;10165;42.662;23.260;2023-08-31T09:04:57;93884.31;;;27.76;30.10
20009;BME280;10165;42.662;23.260;2023-08-31T09:07:24;93871.38;;;27.40;30.60
20009;BME280;10165;42.662;23.260;2023-08-31T09:09:52;93884.66;;;27.69;31.13
20009;BME280;10165;42.662;23.260;2023-08-31T09:12:23;93872.44;;;27.06;32.22
20009;BME280;10165;42.662;23.260;2023-08-31T09:15:01;93869.41;;;27.40;30.89
20009;BME280;10165;42.662;23.260;2023-08-31T09:17:38;93873.06;;;27.74;30.31
20009;BME280;10165;42.662;23.260;2023-08-31T09:20:06;93875.03;;;27.64;29.84
20009;BME280;10165;42.662;23.260;2023-08-31T09:22:33;93876.41;;;27.69;30.15
20009;BME280;10165;42.662;23.260;2023-08-31T09:25:01;93877.84;;;28.06;30.25
20009;BME280;10165;42.662;23.260;2023-08-31T09:27:28;93884.31;;;27.76;30.33
20009;BME280;10165;42.662;23.260;2023-08-31T09:29:55;93880.81;;;27.93;30.22
20009;BME280;10165;42.662;23.260;2023-08-31T09:32:22;93876.19;;;28.18;30.27
20009;BME280;10165;42.662;23.260;2023-08-31T09:34:49;93874.53;;;28.11;29.03
20009;BME280;10165;42.662;23.260;2023-08-31T09:37:24;93874.72;;;27.80;29.86
20009;BME280;10165;42.662;23.260;2023-08-31T09:39:51;93869.59;;;27.55;31.45
20009;BME280;10165;42.662;23.260;2023-08-31T09:42:19;93867.94;;;28.18;30.33
20009;BME280;10165;42.662;23.260;2023-08-31T09:44:49;93869.22;;;27.89;30.80
20009;BME280;10165;42.662;23.260;2023-08-31T09:47:17;93869.25;;;27.71;30.88
20009;BME280;10165;42.662;23.260;2023-08-31T09:49:46;93874.44;;;27.33;29.95
20009;BME280;10165;42.662;23.260;2023-08-31T09:52:13;93879.16;;;27.69;29.30
20009;BME280;10165;42.662;23.260;2023-08-31T09:54:41;93877.78;;;27.64;29.31
20009;BME280;10165;42.662;23.260;2023-08-31T09:57:10;93873.69;;;27.32;29.55
20009;BME280;10165;42.662;23.260;2023-08-31T09:59:39;93867.13;;;27.21;30.00
20009;BME280;10165;42.662;23.260;2023-08-31T10:02:06;93876.41;;;27.23;29.23
20009;BME280;10165;42.662;23.260;2023-08-31T10:04:34;93871.69;;;27.78;29.57
20009;BME280;10165;42.662;23.260;2023-08-31T10:07:04;93866.75;;;28.00;28.89
20009;BME280;10165;42.662;23.260;2023-08-31T10:09:32;93859.41;;;28.07;29.08
20009;BME280;10165;42.662;23.260;2023-08-31T10:12:00;93866.31;;;27.84;28.31
20009;BME280;10165;42.662;23.260;2023-08-31T10:14:30;93866.88;;;28.06;27.82
20009;BME280;10165;42.662;23.260;2023-08-31T10:16:57;93864.97;;;28.39;27.43
20009;BME280;10165;42.662;23.260;2023-08-31T10:19:24;93864.06;;;28.75;26.87
20009;BME280;10165;42.662;23.260;2023-08-31T10:21:51;93858.09;;;28.68;27.24
20009;BME280;10165;42.662;23.260;2023-08-31T10:24:18;93862.84;;;28.67;27.51
20009;BME280;10165;42.662;23.260;2023-08-31T10:26:44;93873.50;;;28.41;27.48
20009;BME280;10165;42.662;23.260;2023-08-31T10:29:26;93866.00;;;28.51;27.92
20009;BME280;10165;42.662;23.260;2023-08-31T10:32:00;93875.53;;;28.32;27.74
20009;BME280;10165;42.662;23.260;2023-08-31T10:34:35;93868.97;;;28.71;27.26
20009;BME280;10165;42.662;23.260;2023-08-31T10:37:19;93868.47;;;28.82;27.42
20009;BME280;10165;42.662;23.260;2023-08-31T10:39:47;93882.63;;;28.89;26.80
20009;BME280;10165;42.662;23.260;2023-08-31T10:42:13;93884.72;;;28.20;27.05
20009;BME280;10165;42.662;23.260;2023-08-31T10:44:41;93878.50;;;28.52;26.63
20009;BME280;10165;42.662;23.260;2023-08-31T10:47:09;93878.03;;;29.10;27.07
20009;BME280;10165;42.662;23.260;2023-08-31T10:49:36;93879.72;;;29.17;26.68
20009;BME280;10165;42.662;23.260;2023-08-31T10:52:21;93882.09;;;29.24;25.90
20009;BME280;10165;42.662;23.260;2023-08-31T10:55:07;93881.84;;;28.56;27.24
20009;BME280;10165;42.662;23.260;2023-08-31T10:57:35;93878.91;;;28.60;26.86
20009;BME280;10165;42.662;23.260;2023-08-31T11:00:03;93880.28;;;28.64;27.31
20009;BME280;10165;42.662;23.260;2023-08-31T11:02:37;93886.25;;;28.02;29.42
20009;BME280;10165;42.662;23.260;2023-08-31T11:05:10;93878.66;;;27.97;30.11
20009;BME280;10165;42.662;23.260;2023-08-31T11:07:39;93890.84;;;28.06;29.93
20009;BME280;10165;42.662;23.260;2023-08-31T11:10:21;93888.69;;;28.19;29.38
20009;BME280;10165;42.662;23.260;2023-08-31T11:12:50;93890.53;;;28.03;29.99
20009;BME280;10165;42.662;23.260;2023-08-31T11:15:20;93891.34;;;27.68;30.22
20009;BME280;10165;42.662;23.260;2023-08-31T11:17:50;93895.44;;;27.18;30.35
20009;BME280;10165;42.662;23.260;2023-08-31T11:20:19;93884.88;;;28.07;30.58
20009;BME280;10165;42.662;23.260;2023-08-31T11:22:50;93891.00;;;28.11;29.37
20009;BME280;10165;42.662;23.260;2023-08-31T11:25:20;93889.63;;;28.16;29.78
20009;BME280;10165;42.662;23.260;2023-08-31T11:27:56;93891.16;;;28.08;29.18
20009;BME280;10165;42.662;23.260;2023-08-31T11:30:26;93897.28;;;27.93;28.86
20009;BME280;10165;42.662;23.260;2023-08-31T11:32:53;93897.59;;;27.77;29.24
20009;BME280;10165;42.662;23.260;2023-08-31T11:35:21;93893.09;;;28.25;28.81
20009;BME280;10165;42.662;23.260;2023-08-31T11:37:56;93893.25;;;28.31;28.75
20009;BME280;10165;42.662;23.260;2023-08-31T11:40:23;93897.63;;;28.46;28.95
20009;BME280;10165;42.662;23.260;2023-08-31T11:42:49;93889.88;;;28.36;29.42
20009;BME280;10165;42.662;23.260;2023-08-31T11:45:17;93896.06;;;28.13;31.04
20009;BME280;10165;42.662;23.260;2023-08-31T11:47:45;93897.16;;;27.79;32.06
20009;BME280;10165;42.662;23.260;2023-08-31T11:50:13;93879.78;;;27.36;33.54
20009;BME280;10165;42.662;23.260;2023-08-31T11:52:41;93882.06;;;27.56;32.95
20009;BME280;10165;42.662;23.260;2023-08-31T11:55:13;93882.97;;;27.35;32.88
20009;BME280;10165;42.662;23.260;2023-08-31T11:57:39;93882.78;;;27.29;32.94
20009;BME280;10165;42.662;23.260;2023-08-31T12:00:06;93883.56;;;27.39;32.65
20009;BME280;10165;42.662;23.260;2023-08-31T12:02:36;93875.66;;;27.50;32.50
20009;BME280;10165;42.662;23.260;2023-08-31T12:05:04;93873.53;;;27.63;32.65
20009;BME280;10165;42.662;23.260;2023-08-31T12:07:39;93877.34;;;27.56;32.67
20009;BME280;10165;42.662;23.260;2023-08-31T12:10:08;93872.88;;;27.04;33.63
20009;BME280;10165;42.662;23.260;2023-08-31T12:12:35;93877.81;;;27.46;33.04
20009;BME280;10165;42.662;23.260;2023-08-31T12:15:03;93885.03;;;26.85;33.47
20009;BME280;10165;42.662;23.260;2023-08-31T12:17:37;93875.63;;;27.23;33.15
20009;BME280;10165;42.662;23.260;2023-08-31T12:20:04;93867.56;;;27.37;32.96
20009;BME280;10165;42.662;23.260;2023-08-31T12:22:32;93866.53;;;27.62;32.12
20009;BME280;10165;42.662;23.260;2023-08-31T12:24:59;93859.22;;;27.50;32.09
20009;BME280;10165;42.662;23.260;2023-08-31T12:27:25;93864.13;;;28.24;31.22
20009;BME280;10165;42.662;23.260;2023-08-31T12:29:52;93869.59;;;27.55;32.11
20009;BME280;10165;42.662;23.260;2023-08-31T12:32:19;93868.47;;;27.16;32.95
20009;BME280;10165;42.662;23.260;2023-08-31T12:34:46;93875.91;;;27.06;33.24
20009;BME280;10165;42.662;23.260;2023-08-31T12:37:13;93879.47;;;27.43;32.83
20009;BME280;10165;42.662;23.260;2023-08-31T12:39:39;93863.44;;;27.42;31.92
20009;BME280;10165;42.662;23.260;2023-08-31T12:42:08;93866.81;;;27.64;32.08
20009;BME280;10165;42.662;23.260;2023-08-31T12:44:48;93868.28;;;27.92;32.02
20009;BME280;10165;42.662;23.260;2023-08-31T12:47:15;93861.53;;;28.02;31.60
20009;BME280;10165;42.662;23.260;2023-08-31T12:49:42;93866.75;;;28.10;30.85
20009;BME280;10165;42.662;23.260;2023-08-31T12:52:08;93873.66;;;27.78;30.75
20009;BME280;10165;42.662;23.260;2023-08-31T12:54:35;93870.75;;;27.08;32.46
20009;BME280;10165;42.662;23.260;2023-08-31T12:57:02;93875.03;;;27.09;31.81
20009;BME280;10165;42.662;23.260;2023-08-31T12:59:29;93867.28;;;27.35;31.37
20009;BME280;10165;42.662;23.260;2023-08-31T13:01:56;93866.31;;;27.93;30.92
20009;BME280;10165;42.662;23.260;2023-08-31T13:04:24;93865.59;;;27.74;30.36
20009;BME280;10165;42.662;23.260;2023-08-31T13:06:51;93867.25;;;27.90;30.54